Terminal Aerodrome Forecast
Issued by NWS

Home | Current Version | Previous Version | Text Only | Print | Product List | Glossary On
Versions: 1 2 3 4 5 6 7 8 9 10 11 12
000
FTUS45 KABQ 062344
TAFFMN
TAF
KFMN 062344Z 0700/0724 29015KT P6SM VCTS SCT080CB BKN120
      TEMPO 0700/0702 VRB20G30KT -SHRA BKN070
     FM070200 33008KT P6SM VCSH BKN070 BKN120
     FM070700 10007KT P6SM BKN080 BKN140
     FM071600 16006KT P6SM SCT070 SCT140
     FM072200 23010KT P6SM VCTS SCT060CB BKN140=

USA.gov is the U.S. government's official web portal to all federal, state and local government web resources and services.